sensor_id;sensor_type;location;lat;lon;timestamp;P1;durP1;ratioP1;P2;durP2;ratioP2
15077;SDS011;7638;49.760;8.646;2023-12-14T00:02:08;7.97;;;4.53;;
15077;SDS011;7638;49.760;8.646;2023-12-14T00:04:34;17.00;;;5.10;;
15077;SDS011;7638;49.760;8.646;2023-12-14T00:07:00;5.57;;;4.20;;
15077;SDS011;7638;49.760;8.646;2023-12-14T00:09:26;7.40;;;5.27;;
15077;SDS011;7638;49.760;8.646;2023-12-14T00:11:52;10.50;;;5.77;;
15077;SDS011;7638;49.760;8.646;2023-12-14T00:14:18;9.83;;;4.67;;
15077;SDS011;7638;49.760;8.646;2023-12-14T00:16:44;6.40;;;4.40;;
15077;SDS011;7638;49.760;8.646;2023-12-14T00:19:10;11.10;;;5.37;;
15077;SDS011;7638;49.760;8.646;2023-12-14T00:21:36;13.10;;;5.87;;
15077;SDS011;7638;49.760;8.646;2023-12-14T00:24:02;9.93;;;6.17;;
15077;SDS011;7638;49.760;8.646;2023-12-14T00:26:28;10.27;;;5.00;;
15077;SDS011;7638;49.760;8.646;2023-12-14T00:28:54;7.17;;;4.33;;
15077;SDS011;7638;49.760;8.646;2023-12-14T00:31:20;6.93;;;4.63;;
15077;SDS011;7638;49.760;8.646;2023-12-14T00:33:46;10.53;;;5.77;;
15077;SDS011;7638;49.760;8.646;2023-12-14T00:36:18;13.00;;;5.97;;
15077;SDS011;7638;49.760;8.646;2023-12-14T00:38:45;10.13;;;6.30;;
15077;SDS011;7638;49.760;8.646;2023-12-14T00:41:11;8.73;;;5.37;;
15077;SDS011;7638;49.760;8.646;2023-12-14T00:43:37;8.60;;;5.67;;
15077;SDS011;7638;49.760;8.646;2023-12-14T00:46:03;9.77;;;5.60;;
15077;SDS011;7638;49.760;8.646;2023-12-14T00:48:29;9.47;;;6.70;;
15077;SDS011;7638;49.760;8.646;2023-12-14T00:50:55;9.83;;;6.07;;
15077;SDS011;7638;49.760;8.646;2023-12-14T00:53:21;12.70;;;6.77;;
15077;SDS011;7638;49.760;8.646;2023-12-14T00:55:47;8.93;;;5.37;;
15077;SDS011;7638;49.760;8.646;2023-12-14T00:58:13;8.10;;;5.33;;
15077;SDS011;7638;49.760;8.646;2023-12-14T01:00:39;9.57;;;6.17;;
15077;SDS011;7638;49.760;8.646;2023-12-14T01:03:05;9.23;;;5.40;;
15077;SDS011;7638;49.760;8.646;2023-12-14T01:05:31;8.00;;;4.47;;
15077;SDS011;7638;49.760;8.646;2023-12-14T01:07:57;6.80;;;4.40;;
15077;SDS011;7638;49.760;8.646;2023-12-14T01:10:23;7.33;;;4.87;;
15077;SDS011;7638;49.760;8.646;2023-12-14T01:12:49;8.67;;;4.83;;
15077;SDS011;7638;49.760;8.646;2023-12-14T01:15:15;7.43;;;4.57;;
15077;SDS011;7638;49.760;8.646;2023-12-14T01:17:41;6.77;;;4.80;;
15077;SDS011;7638;49.760;8.646;2023-12-14T01:20:07;10.53;;;4.80;;
15077;SDS011;7638;49.760;8.646;2023-12-14T01:22:33;8.43;;;5.33;;
15077;SDS011;7638;49.760;8.646;2023-12-14T01:24:59;10.03;;;5.33;;
15077;SDS011;7638;49.760;8.646;2023-12-14T01:27:25;7.77;;;5.80;;
15077;SDS011;7638;49.760;8.646;2023-12-14T01:29:51;9.57;;;5.97;;
15077;SDS011;7638;49.760;8.646;2023-12-14T01:32:17;12.27;;;5.47;;
15077;SDS011;7638;49.760;8.646;2023-12-14T01:34:44;6.63;;;4.40;;
15077;SDS011;7638;49.760;8.646;2023-12-14T01:37:10;7.40;;;5.00;;
15077;SDS011;7638;49.760;8.646;2023-12-14T01:39:36;6.17;;;4.73;;
15077;SDS011;7638;49.760;8.646;2023-12-14T01:42:02;5.97;;;4.30;;
15077;SDS011;7638;49.760;8.646;2023-12-14T01:44:28;6.53;;;3.83;;
15077;SDS011;7638;49.760;8.646;2023-12-14T01:46:54;11.40;;;3.37;;
15077;SDS011;7638;49.760;8.646;2023-12-14T01:49:20;8.30;;;3.53;;
15077;SDS011;7638;49.760;8.646;2023-12-14T01:51:46;4.77;;;3.47;;
15077;SDS011;7638;49.760;8.646;2023-12-14T01:54:12;6.10;;;3.30;;
15077;SDS011;7638;49.760;8.646;2023-12-14T01:56:38;3.67;;;3.07;;
15077;SDS011;7638;49.760;8.646;2023-12-14T01:59:05;4.80;;;3.30;;
15077;SDS011;7638;49.760;8.646;2023-12-14T02:04:03;6.83;;;2.80;;
15077;SDS011;7638;49.760;8.646;2023-12-14T02:06:33;5.87;;;2.83;;
15077;SDS011;7638;49.760;8.646;2023-12-14T02:08:59;7.80;;;3.97;;
15077;SDS011;7638;49.760;8.646;2023-12-14T02:11:25;3.43;;;2.57;;
15077;SDS011;7638;49.760;8.646;2023-12-14T02:13:51;6.43;;;3.17;;
15077;SDS011;7638;49.760;8.646;2023-12-14T02:16:17;5.07;;;2.90;;
15077;SDS011;7638;49.760;8.646;2023-12-14T02:18:43;4.13;;;2.63;;
15077;SDS011;7638;49.760;8.646;2023-12-14T02:21:09;6.53;;;3.20;;
15077;SDS011;7638;49.760;8.646;2023-12-14T02:23:41;4.97;;;3.17;;
15077;SDS011;7638;49.760;8.646;2023-12-14T02:26:07;8.43;;;4.43;;
15077;SDS011;7638;49.760;8.646;2023-12-14T02:28:33;8.73;;;4.23;;
15077;SDS011;7638;49.760;8.646;2023-12-14T02:30:59;8.10;;;4.50;;
15077;SDS011;7638;49.760;8.646;2023-12-14T02:33:25;9.57;;;4.80;;
15077;SDS011;7638;49.760;8.646;2023-12-14T02:35:51;8.00;;;4.87;;
15077;SDS011;7638;49.760;8.646;2023-12-14T02:38:17;8.50;;;4.80;;
15077;SDS011;7638;49.760;8.646;2023-12-14T02:40:43;7.90;;;4.90;;
15077;SDS011;7638;49.760;8.646;2023-12-14T02:43:09;5.93;;;4.37;;
15077;SDS011;7638;49.760;8.646;2023-12-14T02:45:35;9.37;;;5.60;;
15077;SDS011;7638;49.760;8.646;2023-12-14T02:48:01;7.80;;;5.30;;
15077;SDS011;7638;49.760;8.646;2023-12-14T02:50:27;8.73;;;6.00;;
15077;SDS011;7638;49.760;8.646;2023-12-14T02:52:53;12.00;;;5.40;;
15077;SDS011;7638;49.760;8.646;2023-12-14T02:55:19;11.03;;;5.80;;
15077;SDS011;7638;49.760;8.646;2023-12-14T02:57:45;11.33;;;5.37;;
15077;SDS011;7638;49.760;8.646;2023-12-14T03:00:11;9.37;;;5.80;;
15077;SDS011;7638;49.760;8.646;2023-12-14T03:02:37;13.33;;;5.97;;
15077;SDS011;7638;49.760;8.646;2023-12-14T03:05:03;10.57;;;6.40;;
15077;SDS011;7638;49.760;8.646;2023-12-14T03:07:29;9.30;;;5.63;;
15077;SDS011;7638;49.760;8.646;2023-12-14T03:09:55;7.93;;;4.83;;
15077;SDS011;7638;49.760;8.646;2023-12-14T03:12:21;9.13;;;5.43;;
15077;SDS011;7638;49.760;8.646;2023-12-14T03:14:47;9.50;;;5.13;;
15077;SDS011;7638;49.760;8.646;2023-12-14T03:17:13;7.60;;;4.73;;
15077;SDS011;7638;49.760;8.646;2023-12-14T03:19:40;7.43;;;4.93;;
15077;SDS011;7638;49.760;8.646;2023-12-14T03:22:06;8.93;;;5.33;;
15077;SDS011;7638;49.760;8.646;2023-12-14T03:24:32;9.43;;;5.70;;
15077;SDS011;7638;49.760;8.646;2023-12-14T03:26:58;7.30;;;5.07;;
15077;SDS011;7638;49.760;8.646;2023-12-14T03:29:25;9.00;;;5.33;;
15077;SDS011;7638;49.760;8.646;2023-12-14T03:31:51;10.70;;;5.40;;
15077;SDS011;7638;49.760;8.646;2023-12-14T03:34:17;9.13;;;5.40;;
15077;SDS011;7638;49.760;8.646;2023-12-14T03:36:43;8.30;;;4.97;;
15077;SDS011;7638;49.760;8.646;2023-12-14T03:39:10;10.57;;;5.47;;
15077;SDS011;7638;49.760;8.646;2023-12-14T03:41:35;11.40;;;6.40;;
15077;SDS011;7638;49.760;8.646;2023-12-14T03:44:01;10.23;;;6.30;;
15077;SDS011;7638;49.760;8.646;2023-12-14T03:46:28;11.43;;;6.23;;
15077;SDS011;7638;49.760;8.646;2023-12-14T03:48:54;10.17;;;5.40;;
15077;SDS011;7638;49.760;8.646;2023-12-14T03:51:21;9.87;;;5.97;;
15077;SDS011;7638;49.760;8.646;2023-12-14T03:53:47;8.93;;;5.80;;
15077;SDS011;7638;49.760;8.646;2023-12-14T03:56:13;10.57;;;6.37;;
15077;SDS011;7638;49.760;8.646;2023-12-14T03:58:38;16.13;;;7.00;;
15077;SDS011;7638;49.760;8.646;2023-12-14T04:01:05;12.03;;;6.13;;
15077;SDS011;7638;49.760;8.646;2023-12-14T04:03:31;10.20;;;5.17;;
15077;SDS011;7638;49.760;8.646;2023-12-14T04:05:57;7.27;;;5.00;;
15077;SDS011;7638;49.760;8.646;2023-12-14T04:08:23;10.47;;;6.20;;
15077;SDS011;7638;49.760;8.646;2023-12-14T04:10:49;11.33;;;5.90;;
15077;SDS011;7638;49.760;8.646;2023-12-14T04:13:15;10.73;;;6.53;;
15077;SDS011;7638;49.760;8.646;2023-12-14T04:15:42;10.03;;;5.80;;
15077;SDS011;7638;49.760;8.646;2023-12-14T04:18:08;9.70;;;6.23;;
15077;SDS011;7638;49.760;8.646;2023-12-14T04:20:34;12.17;;;5.60;;
15077;SDS011;7638;49.760;8.646;2023-12-14T04:23:00;11.77;;;5.97;;
15077;SDS011;7638;49.760;8.646;2023-12-14T04:25:26;11.70;;;5.97;;
15077;SDS011;7638;49.760;8.646;2023-12-14T04:27:52;8.60;;;5.47;;
15077;SDS011;7638;49.760;8.646;2023-12-14T04:30:18;9.20;;;5.40;;
15077;SDS011;7638;49.760;8.646;2023-12-14T04:32:44;10.20;;;5.37;;
15077;SDS011;7638;49.760;8.646;2023-12-14T04:35:11;9.60;;;5.60;;
15077;SDS011;7638;49.760;8.646;2023-12-14T04:37:37;12.13;;;5.17;;
15077;SDS011;7638;49.760;8.646;2023-12-14T04:40:03;11.40;;;5.93;;
15077;SDS011;7638;49.760;8.646;2023-12-14T04:42:29;9.00;;;5.67;;
15077;SDS011;7638;49.760;8.646;2023-12-14T04:44:55;11.53;;;4.73;;
15077;SDS011;7638;49.760;8.646;2023-12-14T04:47:21;7.43;;;5.43;;
15077;SDS011;7638;49.760;8.646;2023-12-14T04:49:47;6.37;;;4.57;;
15077;SDS011;7638;49.760;8.646;2023-12-14T04:52:13;8.77;;;5.17;;
15077;SDS011;7638;49.760;8.646;2023-12-14T04:54:39;12.03;;;6.20;;
15077;SDS011;7638;49.760;8.646;2023-12-14T04:57:07;13.50;;;6.23;;
15077;SDS011;7638;49.760;8.646;2023-12-14T04:59:33;9.17;;;6.10;;
15077;SDS011;7638;49.760;8.646;2023-12-14T05:01:59;8.97;;;6.63;;
15077;SDS011;7638;49.760;8.646;2023-12-14T05:04:25;7.10;;;5.67;;
15077;SDS011;7638;49.760;8.646;2023-12-14T05:06:51;7.07;;;5.43;;
15077;SDS011;7638;49.760;8.646;2023-12-14T05:09:17;7.37;;;5.53;;
15077;SDS011;7638;49.760;8.646;2023-12-14T05:11:43;10.37;;;6.57;;
15077;SDS011;7638;49.760;8.646;2023-12-14T05:14:09;7.63;;;4.93;;
15077;SDS011;7638;49.760;8.646;2023-12-14T05:16:35;6.13;;;4.50;;
15077;SDS011;7638;49.760;8.646;2023-12-14T05:19:01;6.00;;;4.17;;
15077;SDS011;7638;49.760;8.646;2023-12-14T05:21:27;9.40;;;5.43;;
15077;SDS011;7638;49.760;8.646;2023-12-14T05:23:53;9.53;;;5.70;;
15077;SDS011;7638;49.760;8.646;2023-12-14T05:26:19;7.83;;;5.13;;
15077;SDS011;7638;49.760;8.646;2023-12-14T05:28:45;5.77;;;3.90;;
15077;SDS011;7638;49.760;8.646;2023-12-14T05:31:11;8.47;;;4.77;;
15077;SDS011;7638;49.760;8.646;2023-12-14T05:33:38;7.77;;;5.20;;
15077;SDS011;7638;49.760;8.646;2023-12-14T05:36:04;11.37;;;5.67;;
15077;SDS011;7638;49.760;8.646;2023-12-14T05:38:34;10.67;;;5.33;;
15077;SDS011;7638;49.760;8.646;2023-12-14T05:41:00;9.67;;;5.77;;
15077;SDS011;7638;49.760;8.646;2023-12-14T05:43:26;9.93;;;5.40;;
15077;SDS011;7638;49.760;8.646;2023-12-14T05:45:52;10.23;;;5.37;;
15077;SDS011;7638;49.760;8.646;2023-12-14T05:48:18;10.87;;;6.17;;
15077;SDS011;7638;49.760;8.646;2023-12-14T05:50:44;10.53;;;6.20;;
15077;SDS011;7638;49.760;8.646;2023-12-14T05:53:10;14.10;;;6.63;;
15077;SDS011;7638;49.760;8.646;2023-12-14T05:55:35;14.47;;;5.77;;
15077;SDS011;7638;49.760;8.646;2023-12-14T05:58:03;12.33;;;6.70;;
15077;SDS011;7638;49.760;8.646;2023-12-14T06:00:29;11.33;;;6.80;;
15077;SDS011;7638;49.760;8.646;2023-12-14T06:02:55;10.23;;;6.83;;
15077;SDS011;7638;49.760;8.646;2023-12-14T06:05:21;12.93;;;6.63;;
15077;SDS011;7638;49.760;8.646;2023-12-14T06:07:47;10.93;;;6.17;;
15077;SDS011;7638;49.760;8.646;2023-12-14T06:10:13;7.60;;;5.33;;
15077;SDS011;7638;49.760;8.646;2023-12-14T06:12:39;10.20;;;6.60;;
15077;SDS011;7638;49.760;8.646;2023-12-14T06:15:06;10.37;;;5.73;;
15077;SDS011;7638;49.760;8.646;2023-12-14T06:17:32;11.00;;;6.57;;
15077;SDS011;7638;49.760;8.646;2023-12-14T06:19:59;9.87;;;6.47;;
15077;SDS011;7638;49.760;8.646;2023-12-14T06:22:25;10.03;;;5.77;;
15077;SDS011;7638;49.760;8.646;2023-12-14T06:24:51;8.73;;;5.70;;
15077;SDS011;7638;49.760;8.646;2023-12-14T06:27:17;9.83;;;5.87;;
15077;SDS011;7638;49.760;8.646;2023-12-14T06:29:43;13.87;;;6.57;;
15077;SDS011;7638;49.760;8.646;2023-12-14T06:32:09;11.07;;;7.07;;
15077;SDS011;7638;49.760;8.646;2023-12-14T06:34:35;12.57;;;6.83;;
15077;SDS011;7638;49.760;8.646;2023-12-14T06:37:01;11.90;;;6.63;;
15077;SDS011;7638;49.760;8.646;2023-12-14T06:39:28;10.40;;;6.63;;
15077;SDS011;7638;49.760;8.646;2023-12-14T06:41:54;13.97;;;7.37;;
15077;SDS011;7638;49.760;8.646;2023-12-14T06:44:20;10.23;;;6.37;;
15077;SDS011;7638;49.760;8.646;2023-12-14T06:46:46;12.47;;;6.43;;
15077;SDS011;7638;49.760;8.646;2023-12-14T06:49:12;11.63;;;6.87;;
15077;SDS011;7638;49.760;8.646;2023-12-14T06:51:38;12.00;;;6.77;;
15077;SDS011;7638;49.760;8.646;2023-12-14T06:54:03;9.50;;;5.90;;
15077;SDS011;7638;49.760;8.646;2023-12-14T06:56:29;10.60;;;6.63;;
15077;SDS011;7638;49.760;8.646;2023-12-14T06:58:55;10.93;;;6.53;;
15077;SDS011;7638;49.760;8.646;2023-12-14T07:01:21;16.50;;;7.30;;
15077;SDS011;7638;49.760;8.646;2023-12-14T07:03:47;13.17;;;7.23;;
15077;SDS011;7638;49.760;8.646;2023-12-14T07:06:14;11.33;;;6.33;;
15077;SDS011;7638;49.760;8.646;2023-12-14T07:08:40;10.13;;;7.10;;
15077;SDS011;7638;49.760;8.646;2023-12-14T07:11:07;9.70;;;6.83;;
15077;SDS011;7638;49.760;8.646;2023-12-14T07:13:33;8.57;;;5.57;;
15077;SDS011;7638;49.760;8.646;2023-12-14T07:16:02;9.67;;;5.43;;
15077;SDS011;7638;49.760;8.646;2023-12-14T07:18:28;9.33;;;5.63;;
15077;SDS011;7638;49.760;8.646;2023-12-14T07:20:54;11.90;;;6.83;;
15077;SDS011;7638;49.760;8.646;2023-12-14T07:23:20;8.50;;;5.87;;
15077;SDS011;7638;49.760;8.646;2023-12-14T07:25:46;7.77;;;5.27;;
15077;SDS011;7638;49.760;8.646;2023-12-14T07:28:12;9.00;;;5.43;;
15077;SDS011;7638;49.760;8.646;2023-12-14T07:30:38;12.70;;;7.53;;
15077;SDS011;7638;49.760;8.646;2023-12-14T07:33:04;11.40;;;6.73;;
15077;SDS011;7638;49.760;8.646;2023-12-14T07:35:30;12.87;;;6.07;;
15077;SDS011;7638;49.760;8.646;2023-12-14T07:37:57;11.73;;;5.93;;
15077;SDS011;7638;49.760;8.646;2023-12-14T07:40:23;12.90;;;6.50;;
15077;SDS011;7638;49.760;8.646;2023-12-14T07:42:49;8.37;;;5.50;;
15077;SDS011;7638;49.760;8.646;2023-12-14T07:45:15;7.43;;;4.53;;
15077;SDS011;7638;49.760;8.646;2023-12-14T07:47:40;7.97;;;4.90;;
15077;SDS011;7638;49.760;8.646;2023-12-14T07:50:07;8.97;;;4.20;;
15077;SDS011;7638;49.760;8.646;2023-12-14T07:52:33;11.47;;;4.80;;
15077;SDS011;7638;49.760;8.646;2023-12-14T07:55:00;9.60;;;4.67;;
15077;SDS011;7638;49.760;8.646;2023-12-14T07:57:26;8.77;;;4.87;;
15077;SDS011;7638;49.760;8.646;2023-12-14T07:59:52;13.70;;;6.00;;
15077;SDS011;7638;49.760;8.646;2023-12-14T08:02:18;8.87;;;5.77;;
15077;SDS011;7638;49.760;8.646;2023-12-14T08:04:44;9.47;;;5.27;;
15077;SDS011;7638;49.760;8.646;2023-12-14T08:07:10;10.43;;;5.50;;
15077;SDS011;7638;49.760;8.646;2023-12-14T08:09:36;6.27;;;4.50;;
15077;SDS011;7638;49.760;8.646;2023-12-14T08:12:02;8.60;;;4.17;;
15077;SDS011;7638;49.760;8.646;2023-12-14T08:14:28;6.90;;;4.13;;
15077;SDS011;7638;49.760;8.646;2023-12-14T08:16:54;7.73;;;4.70;;
15077;SDS011;7638;49.760;8.646;2023-12-14T08:19:20;8.90;;;4.33;;
15077;SDS011;7638;49.760;8.646;2023-12-14T08:21:46;9.50;;;4.70;;
15077;SDS011;7638;49.760;8.646;2023-12-14T08:24:12;6.23;;;3.60;;
15077;SDS011;7638;49.760;8.646;2023-12-14T08:26:38;7.97;;;5.03;;
15077;SDS011;7638;49.760;8.646;2023-12-14T08:29:04;7.90;;;5.30;;
15077;SDS011;7638;49.760;8.646;2023-12-14T08:31:30;6.53;;;4.60;;
15077;SDS011;7638;49.760;8.646;2023-12-14T08:33:57;6.47;;;4.60;;
15077;SDS011;7638;49.760;8.646;2023-12-14T08:36:23;6.77;;;4.83;;
15077;SDS011;7638;49.760;8.646;2023-12-14T08:38:49;10.63;;;5.37;;
15077;SDS011;7638;49.760;8.646;2023-12-14T08:41:15;11.83;;;5.57;;
15077;SDS011;7638;49.760;8.646;2023-12-14T08:43:41;9.20;;;5.00;;
15077;SDS011;7638;49.760;8.646;2023-12-14T08:46:07;12.23;;;6.07;;
15077;SDS011;7638;49.760;8.646;2023-12-14T08:48:35;10.90;;;5.73;;
15077;SDS011;7638;49.760;8.646;2023-12-14T08:51:01;12.60;;;6.80;;
15077;SDS011;7638;49.760;8.646;2023-12-14T08:53:27;9.97;;;5.53;;
15077;SDS011;7638;49.760;8.646;2023-12-14T08:55:54;15.13;;;6.43;;
15077;SDS011;7638;49.760;8.646;2023-12-14T08:58:20;9.40;;;5.90;;
15077;SDS011;7638;49.760;8.646;2023-12-14T09:00:46;13.43;;;7.00;;
15077;SDS011;7638;49.760;8.646;2023-12-14T09:03:17;9.57;;;6.30;;
15077;SDS011;7638;49.760;8.646;2023-12-14T09:05:43;10.10;;;6.10;;
15077;SDS011;7638;49.760;8.646;2023-12-14T09:08:10;11.63;;;7.60;;
15077;SDS011;7638;49.760;8.646;2023-12-14T09:10:36;11.80;;;6.97;;
15077;SDS011;7638;49.760;8.646;2023-12-14T09:13:02;11.20;;;6.23;;
15077;SDS011;7638;49.760;8.646;2023-12-14T09:15:30;12.73;;;6.87;;
15077;SDS011;7638;49.760;8.646;2023-12-14T09:17:56;9.47;;;6.47;;
15077;SDS011;7638;49.760;8.646;2023-12-14T09:20:22;9.10;;;6.03;;
15077;SDS011;7638;49.760;8.646;2023-12-14T09:22:48;10.50;;;7.20;;
15077;SDS011;7638;49.760;8.646;2023-12-14T09:25:14;14.63;;;7.60;;
15077;SDS011;7638;49.760;8.646;2023-12-14T09:27:40;15.93;;;6.97;;
15077;SDS011;7638;49.760;8.646;2023-12-14T09:30:06;9.17;;;6.50;;
15077;SDS011;7638;49.760;8.646;2023-12-14T09:32:33;15.13;;;7.47;;
15077;SDS011;7638;49.760;8.646;2023-12-14T09:34:59;10.70;;;7.77;;
15077;SDS011;7638;49.760;8.646;2023-12-14T09:37:25;12.83;;;6.73;;
15077;SDS011;7638;49.760;8.646;2023-12-14T09:39:52;14.40;;;9.00;;
15077;SDS011;7638;49.760;8.646;2023-12-14T09:42:18;18.63;;;7.87;;
15077;SDS011;7638;49.760;8.646;2023-12-14T09:44:48;11.00;;;7.23;;
15077;SDS011;7638;49.760;8.646;2023-12-14T09:47:14;16.80;;;6.93;;
15077;SDS011;7638;49.760;8.646;2023-12-14T09:49:41;10.57;;;6.90;;
15077;SDS011;7638;49.760;8.646;2023-12-14T09:52:09;10.13;;;7.60;;
15077;SDS011;7638;49.760;8.646;2023-12-14T09:54:35;12.33;;;7.90;;
15077;SDS011;7638;49.760;8.646;2023-12-14T09:57:01;15.90;;;8.33;;
15077;SDS011;7638;49.760;8.646;2023-12-14T09:59:27;11.23;;;7.10;;
15077;SDS011;7638;49.760;8.646;2023-12-14T10:01:56;13.13;;;6.70;;
15077;SDS011;7638;49.760;8.646;2023-12-14T10:04:34;12.17;;;7.47;;
15077;SDS011;7638;49.760;8.646;2023-12-14T10:07:01;12.07;;;7.27;;
15077;SDS011;7638;49.760;8.646;2023-12-14T10:09:31;9.23;;;6.43;;
15077;SDS011;7638;49.760;8.646;2023-12-14T10:12:05;10.47;;;7.00;;
15077;SDS011;7638;49.760;8.646;2023-12-14T10:14:31;16.13;;;8.50;;
15077;SDS011;7638;49.760;8.646;2023-12-14T10:16:58;11.90;;;8.43;;
15077;SDS011;7638;49.760;8.646;2023-12-14T10:19:25;15.13;;;7.80;;
15077;SDS011;7638;49.760;8.646;2023-12-14T10:21:51;21.47;;;8.30;;
15077;SDS011;7638;49.760;8.646;2023-12-14T10:24:18;11.97;;;7.30;;
15077;SDS011;7638;49.760;8.646;2023-12-14T10:26:45;12.03;;;7.30;;
15077;SDS011;7638;49.760;8.646;2023-12-14T10:29:11;13.60;;;8.40;;
15077;SDS011;7638;49.760;8.646;2023-12-14T10:31:37;12.17;;;7.73;;
15077;SDS011;7638;49.760;8.646;2023-12-14T10:34:04;16.57;;;8.67;;
15077;SDS011;7638;49.760;8.646;2023-12-14T10:36:30;12.17;;;7.47;;
15077;SDS011;7638;49.760;8.646;2023-12-14T10:38:57;9.27;;;7.03;;
15077;SDS011;7638;49.760;8.646;2023-12-14T10:41:24;11.07;;;8.13;;
15077;SDS011;7638;49.760;8.646;2023-12-14T10:43:50;12.57;;;8.10;;
15077;SDS011;7638;49.760;8.646;2023-12-14T10:46:17;13.20;;;8.93;;
15077;SDS011;7638;49.760;8.646;2023-12-14T10:48:45;16.67;;;7.90;;
15077;SDS011;7638;49.760;8.646;2023-12-14T10:51:12;12.33;;;7.30;;
15077;SDS011;7638;49.760;8.646;2023-12-14T10:53:38;12.77;;;7.67;;
15077;SDS011;7638;49.760;8.646;2023-12-14T10:56:05;10.77;;;7.80;;
15077;SDS011;7638;49.760;8.646;2023-12-14T10:58:53;14.53;;;7.83;;
15077;SDS011;7638;49.760;8.646;2023-12-14T11:01:20;13.27;;;7.50;;
15077;SDS011;7638;49.760;8.646;2023-12-14T11:03:46;16.43;;;8.50;;
15077;SDS011;7638;49.760;8.646;2023-12-14T11:06:25;16.57;;;10.93;;
15077;SDS011;7638;49.760;8.646;2023-12-14T11:08:54;14.73;;;8.33;;
15077;SDS011;7638;49.760;8.646;2023-12-14T11:11:21;13.43;;;7.73;;
15077;SDS011;7638;49.760;8.646;2023-12-14T11:13:50;12.43;;;8.20;;
15077;SDS011;7638;49.760;8.646;2023-12-14T11:16:17;14.33;;;7.53;;
15077;SDS011;7638;49.760;8.646;2023-12-14T11:18:46;14.10;;;7.73;;
15077;SDS011;7638;49.760;8.646;2023-12-14T11:21:12;14.80;;;7.63;;
15077;SDS011;7638;49.760;8.646;2023-12-14T11:23:44;10.43;;;6.73;;
15077;SDS011;7638;49.760;8.646;2023-12-14T11:26:10;11.63;;;7.57;;
15077;SDS011;7638;49.760;8.646;2023-12-14T11:28:37;13.73;;;6.53;;
15077;SDS011;7638;49.760;8.646;2023-12-14T11:31:03;13.33;;;7.63;;
15077;SDS011;7638;49.760;8.646;2023-12-14T11:33:34;11.73;;;6.20;;
15077;SDS011;7638;49.760;8.646;2023-12-14T11:36:04;13.07;;;7.07;;
15077;SDS011;7638;49.760;8.646;2023-12-14T11:38:31;12.53;;;6.63;;
15077;SDS011;7638;49.760;8.646;2023-12-14T11:41:00;9.57;;;6.33;;
15077;SDS011;7638;49.760;8.646;2023-12-14T11:43:27;10.87;;;5.57;;
15077;SDS011;7638;49.760;8.646;2023-12-14T11:45:53;7.00;;;4.67;;
15077;SDS011;7638;49.760;8.646;2023-12-14T11:48:20;6.63;;;4.40;;
15077;SDS011;7638;49.760;8.646;2023-12-14T11:50:46;6.80;;;4.07;;
15077;SDS011;7638;49.760;8.646;2023-12-14T11:53:12;5.33;;;3.53;;
15077;SDS011;7638;49.760;8.646;2023-12-14T11:55:39;3.53;;;3.00;;
15077;SDS011;7638;49.760;8.646;2023-12-14T11:58:06;4.87;;;3.63;;
15077;SDS011;7638;49.760;8.646;2023-12-14T12:00:33;6.27;;;2.80;;
15077;SDS011;7638;49.760;8.646;2023-12-14T12:03:14;4.07;;;2.83;;
15077;SDS011;7638;49.760;8.646;2023-12-14T12:05:42;4.43;;;2.53;;
15077;SDS011;7638;49.760;8.646;2023-12-14T12:08:08;4.93;;;3.33;;
15077;SDS011;7638;49.760;8.646;2023-12-14T12:10:35;3.97;;;3.00;;
15077;SDS011;7638;49.760;8.646;2023-12-14T12:13:02;3.80;;;3.00;;
15077;SDS011;7638;49.760;8.646;2023-12-14T12:15:32;6.73;;;3.37;;
15077;SDS011;7638;49.760;8.646;2023-12-14T12:18:01;2.80;;;2.30;;
15077;SDS011;7638;49.760;8.646;2023-12-14T12:20:27;4.63;;;2.60;;
15077;SDS011;7638;49.760;8.646;2023-12-14T12:22:53;3.87;;;2.40;;
15077;SDS011;7638;49.760;8.646;2023-12-14T12:25:19;3.70;;;2.93;;
15077;SDS011;7638;49.760;8.646;2023-12-14T12:27:46;3.70;;;2.57;;
15077;SDS011;7638;49.760;8.646;2023-12-14T12:30:12;4.33;;;3.17;;
15077;SDS011;7638;49.760;8.646;2023-12-14T12:32:44;6.90;;;4.13;;
15077;SDS011;7638;49.760;8.646;2023-12-14T12:35:10;7.50;;;4.40;;
15077;SDS011;7638;49.760;8.646;2023-12-14T12:37:36;5.37;;;3.43;;
15077;SDS011;7638;49.760;8.646;2023-12-14T12:40:03;5.37;;;3.47;;
15077;SDS011;7638;49.760;8.646;2023-12-14T12:42:29;5.30;;;3.80;;
15077;SDS011;7638;49.760;8.646;2023-12-14T12:44:55;8.70;;;3.77;;
15077;SDS011;7638;49.760;8.646;2023-12-14T12:47:21;4.27;;;2.70;;
15077;SDS011;7638;49.760;8.646;2023-12-14T12:49:47;6.33;;;3.40;;
15077;SDS011;7638;49.760;8.646;2023-12-14T12:52:13;5.57;;;3.30;;
15077;SDS011;7638;49.760;8.646;2023-12-14T12:54:39;5.13;;;3.73;;
15077;SDS011;7638;49.760;8.646;2023-12-14T12:57:05;4.67;;;3.13;;
15077;SDS011;7638;49.760;8.646;2023-12-14T12:59:31;6.73;;;3.57;;
15077;SDS011;7638;49.760;8.646;2023-12-14T13:01:58;4.43;;;3.20;;
15077;SDS011;7638;49.760;8.646;2023-12-14T13:04:24;3.37;;;2.90;;
15077;SDS011;7638;49.760;8.646;2023-12-14T13:06:51;9.40;;;3.73;;
15077;SDS011;7638;49.760;8.646;2023-12-14T13:09:17;5.07;;;3.63;;
15077;SDS011;7638;49.760;8.646;2023-12-14T13:11:46;6.20;;;3.57;;
15077;SDS011;7638;49.760;8.646;2023-12-14T13:14:12;5.27;;;3.63;;
15077;SDS011;7638;49.760;8.646;2023-12-14T13:16:39;4.37;;;3.20;;
15077;SDS011;7638;49.760;8.646;2023-12-14T13:19:06;5.07;;;3.23;;
15077;SDS011;7638;49.760;8.646;2023-12-14T13:21:35;4.73;;;4.20;;
15077;SDS011;7638;49.760;8.646;2023-12-14T13:24:01;7.90;;;4.03;;
15077;SDS011;7638;49.760;8.646;2023-12-14T13:26:27;5.27;;;3.93;;
15077;SDS011;7638;49.760;8.646;2023-12-14T13:28:54;4.87;;;3.73;;
15077;SDS011;7638;49.760;8.646;2023-12-14T13:31:20;4.33;;;2.90;;
15077;SDS011;7638;49.760;8.646;2023-12-14T13:33:46;7.80;;;4.27;;
15077;SDS011;7638;49.760;8.646;2023-12-14T13:36:13;7.30;;;3.63;;
15077;SDS011;7638;49.760;8.646;2023-12-14T13:38:40;4.63;;;3.10;;
15077;SDS011;7638;49.760;8.646;2023-12-14T13:41:06;4.90;;;3.60;;
15077;SDS011;7638;49.760;8.646;2023-12-14T13:43:32;5.93;;;3.87;;
15077;SDS011;7638;49.760;8.646;2023-12-14T13:45:58;16.03;;;4.23;;
15077;SDS011;7638;49.760;8.646;2023-12-14T13:48:25;6.50;;;3.70;;
15077;SDS011;7638;49.760;8.646;2023-12-14T13:50:51;6.53;;;4.10;;
15077;SDS011;7638;49.760;8.646;2023-12-14T13:53:17;8.43;;;4.57;;
15077;SDS011;7638;49.760;8.646;2023-12-14T13:55:43;5.87;;;4.27;;
15077;SDS011;7638;49.760;8.646;2023-12-14T13:58:09;5.77;;;4.00;;
15077;SDS011;7638;49.760;8.646;2023-12-14T14:00:35;6.13;;;4.43;;
15077;SDS011;7638;49.760;8.646;2023-12-14T14:03:01;7.30;;;4.63;;
15077;SDS011;7638;49.760;8.646;2023-12-14T14:05:28;11.33;;;5.00;;
15077;SDS011;7638;49.760;8.646;2023-12-14T14:07:54;8.57;;;5.57;;
15077;SDS011;7638;49.760;8.646;2023-12-14T14:10:20;9.17;;;5.60;;
15077;SDS011;7638;49.760;8.646;2023-12-14T14:12:47;7.23;;;4.57;;
15077;SDS011;7638;49.760;8.646;2023-12-14T14:15:13;9.63;;;5.50;;
15077;SDS011;7638;49.760;8.646;2023-12-14T14:17:39;9.90;;;5.73;;
15077;SDS011;7638;49.760;8.646;2023-12-14T14:20:05;8.87;;;5.63;;
15077;SDS011;7638;49.760;8.646;2023-12-14T14:22:32;7.13;;;5.10;;
15077;SDS011;7638;49.760;8.646;2023-12-14T14:24:59;7.70;;;5.53;;
15077;SDS011;7638;49.760;8.646;2023-12-14T14:27:25;8.10;;;4.77;;
15077;SDS011;7638;49.760;8.646;2023-12-14T14:29:51;8.67;;;5.17;;
15077;SDS011;7638;49.760;8.646;2023-12-14T14:32:20;7.00;;;4.77;;
15077;SDS011;7638;49.760;8.646;2023-12-14T14:34:46;7.33;;;4.40;;
15077;SDS011;7638;49.760;8.646;2023-12-14T14:37:12;7.40;;;4.33;;
15077;SDS011;7638;49.760;8.646;2023-12-14T14:39:39;6.97;;;4.33;;
15077;SDS011;7638;49.760;8.646;2023-12-14T14:42:08;9.23;;;5.40;;
15077;SDS011;7638;49.760;8.646;2023-12-14T14:44:34;5.97;;;4.17;;
15077;SDS011;7638;49.760;8.646;2023-12-14T14:47:00;5.70;;;4.00;;
15077;SDS011;7638;49.760;8.646;2023-12-14T14:49:27;7.27;;;4.40;;
15077;SDS011;7638;49.760;8.646;2023-12-14T14:51:53;5.30;;;3.63;;
15077;SDS011;7638;49.760;8.646;2023-12-14T14:54:19;5.87;;;4.20;;